Eupora, Mississippi
Current Conditions -  °F | °C
As of 4:35 PM on Monday 24 Nov 2014 (Local Time) from KSTF Reporting Station
Clear Clear  
Wind Chill: 55°   Ceiling: Unl
Heat Index: 55°   Visibility: NA
Dew Point: 34°   Wind: 3mph
Humidity: 44%   Direction: 290°WNW
Pressure: 29.97"   Gusts: NA
Location:  33.54°N, 89.27°W
Report Text: KSTF 242235Z AUTO 29003KT CLR 13/01 A2997 RMK AO2 PWINO
Loading
Personal Weather Stations






























Interactive Weather Map New forecast layout! Learn more

10-Day Weather Forecast

Advertisements
Track Severe Weather on mobile